sensor_id;sensor_type;location;lat;lon;timestamp;pressure;altitude;pressure_sealevel;temperature;humidity
10587;BME280;5341;47.606;7.576;2022-12-18T00:00:05;99739.84;;;0.87;64.50
10587;BME280;5341;47.606;7.576;2022-12-18T00:02:39;99731.09;;;0.86;64.66
10587;BME280;5341;47.606;7.576;2022-12-18T00:05:08;99731.00;;;0.88;64.62
10587;BME280;5341;47.606;7.576;2022-12-18T00:07:39;99729.22;;;0.88;64.83
10587;BME280;5341;47.606;7.576;2022-12-18T00:10:08;99738.81;;;0.90;64.75
10587;BME280;5341;47.606;7.576;2022-12-18T00:12:36;99738.69;;;0.91;64.71
10587;BME280;5341;47.606;7.576;2022-12-18T00:15:05;99729.00;;;0.92;64.89
10587;BME280;5341;47.606;7.576;2022-12-18T00:17:34;99727.13;;;0.94;65.03
10587;BME280;5341;47.606;7.576;2022-12-18T00:20:04;99721.66;;;0.97;64.98
10587;BME280;5341;47.606;7.576;2022-12-18T00:22:49;99723.25;;;0.99;65.14
10587;BME280;5341;47.606;7.576;2022-12-18T00:25:17;99710.94;;;1.00;65.13
10587;BME280;5341;47.606;7.576;2022-12-18T00:27:46;99726.75;;;1.00;65.12
10587;BME280;5341;47.606;7.576;2022-12-18T00:30:15;99727.59;;;1.00;65.30
10587;BME280;5341;47.606;7.576;2022-12-18T00:32:46;99744.22;;;1.01;64.89
10587;BME280;5341;47.606;7.576;2022-12-18T00:35:18;99749.50;;;1.01;65.30
10587;BME280;5341;47.606;7.576;2022-12-18T00:37:46;99751.19;;;1.02;65.15
10587;BME280;5341;47.606;7.576;2022-12-18T00:42:55;99744.88;;;1.04;65.14
10587;BME280;5341;47.606;7.576;2022-12-18T00:45:26;99750.88;;;1.06;65.05
10587;BME280;5341;47.606;7.576;2022-12-18T00:48:05;99739.41;;;1.07;65.18
10587;BME280;5341;47.606;7.576;2022-12-18T00:50:36;99739.41;;;1.07;65.06
10587;BME280;5341;47.606;7.576;2022-12-18T00:53:08;99742.81;;;1.09;65.07
10587;BME280;5341;47.606;7.576;2022-12-18T00:55:47;99750.72;;;1.09;65.36
10587;BME280;5341;47.606;7.576;2022-12-18T00:58:24;99744.50;;;1.10;65.19
10587;BME280;5341;47.606;7.576;2022-12-18T01:01:12;99749.00;;;1.08;65.20
10587;BME280;5341;47.606;7.576;2022-12-18T01:04:00;99749.19;;;1.05;65.16
10587;BME280;5341;47.606;7.576;2022-12-18T01:07:03;99761.41;;;1.06;65.28
10587;BME280;5341;47.606;7.576;2022-12-18T01:09:37;99756.91;;;1.08;65.24
10587;BME280;5341;47.606;7.576;2022-12-18T01:12:17;99756.91;;;1.08;65.21
10587;BME280;5341;47.606;7.576;2022-12-18T01:14:59;99751.63;;;1.08;65.41
10587;BME280;5341;47.606;7.576;2022-12-18T01:17:27;99762.09;;;1.10;65.32
10587;BME280;5341;47.606;7.576;2022-12-18T01:19:57;99773.47;;;1.10;65.22
10587;BME280;5341;47.606;7.576;2022-12-18T01:22:27;99782.97;;;1.13;65.47
10587;BME280;5341;47.606;7.576;2022-12-18T01:25:21;99787.19;;;1.15;65.23
10587;BME280;5341;47.606;7.576;2022-12-18T01:27:51;99785.38;;;1.16;65.28
10587;BME280;5341;47.606;7.576;2022-12-18T01:30:22;99776.53;;;1.17;65.42
10587;BME280;5341;47.606;7.576;2022-12-18T01:32:56;99780.97;;;1.16;65.40
10587;BME280;5341;47.606;7.576;2022-12-18T01:35:27;99779.19;;;1.17;65.12
10587;BME280;5341;47.606;7.576;2022-12-18T01:37:56;99783.69;;;1.15;64.93
10587;BME280;5341;47.606;7.576;2022-12-18T01:40:25;99788.13;;;1.14;65.04
10587;BME280;5341;47.606;7.576;2022-12-18T01:42:54;99798.66;;;1.14;65.16
10587;BME280;5341;47.606;7.576;2022-12-18T01:45:50;99796.03;;;1.14;64.98
10587;BME280;5341;47.606;7.576;2022-12-18T01:48:28;99798.66;;;1.14;65.04
10587;BME280;5341;47.606;7.576;2022-12-18T01:51:00;99795.19;;;1.14;65.05
10587;BME280;5341;47.606;7.576;2022-12-18T01:53:31;99797.91;;;1.12;65.22
10587;BME280;5341;47.606;7.576;2022-12-18T01:56:01;99804.03;;;1.13;64.99
10587;BME280;5341;47.606;7.576;2022-12-18T01:58:39;99796.22;;;1.11;64.58
10587;BME280;5341;47.606;7.576;2022-12-18T02:01:11;99804.13;;;1.11;64.99
10587;BME280;5341;47.606;7.576;2022-12-18T02:03:41;99813.16;;;1.07;64.70
10587;BME280;5341;47.606;7.576;2022-12-18T02:06:15;99808.94;;;1.05;64.59
10587;BME280;5341;47.606;7.576;2022-12-18T02:09:01;99806.41;;;1.03;64.61
10587;BME280;5341;47.606;7.576;2022-12-18T02:11:40;99811.66;;;1.03;64.44
10587;BME280;5341;47.606;7.576;2022-12-18T02:14:18;99811.56;;;1.05;64.61
10587;BME280;5341;47.606;7.576;2022-12-18T02:16:54;99806.41;;;1.03;64.39
10587;BME280;5341;47.606;7.576;2022-12-18T02:19:41;99798.50;;;1.03;64.54
10587;BME280;5341;47.606;7.576;2022-12-18T02:22:28;99795.00;;;1.03;64.60
10587;BME280;5341;47.606;7.576;2022-12-18T02:25:24;99795.97;;;1.02;64.24
10587;BME280;5341;47.606;7.576;2022-12-18T02:28:00;99803.97;;;1.00;64.38
10587;BME280;5341;47.606;7.576;2022-12-18T02:30:54;99798.97;;;0.96;64.34
10587;BME280;5341;47.606;7.576;2022-12-18T02:37:22;99806.22;;;0.92;64.30
10587;BME280;5341;47.606;7.576;2022-12-18T02:39:58;99821.19;;;0.92;64.49
10587;BME280;5341;47.606;7.576;2022-12-18T02:42:29;99822.00;;;0.92;64.31
10587;BME280;5341;47.606;7.576;2022-12-18T02:45:45;99808.09;;;0.90;64.09
10587;BME280;5341;47.606;7.576;2022-12-18T02:48:13;99814.41;;;0.87;64.19
10587;BME280;5341;47.606;7.576;2022-12-18T02:51:07;99812.72;;;0.86;64.00
10587;BME280;5341;47.606;7.576;2022-12-18T02:53:44;99812.81;;;0.85;64.24
10587;BME280;5341;47.606;7.576;2022-12-18T02:56:42;99804.16;;;0.83;64.04
10587;BME280;5341;47.606;7.576;2022-12-18T02:59:22;99817.41;;;0.81;64.05
10587;BME280;5341;47.606;7.576;2022-12-18T03:02:06;99822.69;;;0.81;64.04
10587;BME280;5341;47.606;7.576;2022-12-18T03:04:46;99817.41;;;0.81;64.23
10587;BME280;5341;47.606;7.576;2022-12-18T03:07:23;99832.38;;;0.81;64.00
10587;BME280;5341;47.606;7.576;2022-12-18T03:09:56;99833.31;;;0.80;63.86
10587;BME280;5341;47.606;7.576;2022-12-18T03:12:32;99835.09;;;0.79;63.91
10587;BME280;5341;47.606;7.576;2022-12-18T03:15:23;99834.16;;;0.80;64.02
10587;BME280;5341;47.606;7.576;2022-12-18T03:18:08;99832.56;;;0.78;63.96
10587;BME280;5341;47.606;7.576;2022-12-18T03:20:43;99839.63;;;0.77;63.82
10587;BME280;5341;47.606;7.576;2022-12-18T03:23:21;99827.50;;;0.75;63.90
10587;BME280;5341;47.606;7.576;2022-12-18T03:25:54;99824.84;;;0.75;63.84
10587;BME280;5341;47.606;7.576;2022-12-18T03:28:31;99822.22;;;0.75;64.06
10587;BME280;5341;47.606;7.576;2022-12-18T03:31:09;99827.59;;;0.73;63.67
10587;BME280;5341;47.606;7.576;2022-12-18T03:33:57;99824.19;;;0.71;63.70
10587;BME280;5341;47.606;7.576;2022-12-18T03:36:37;99829.53;;;0.70;63.83
10587;BME280;5341;47.606;7.576;2022-12-18T03:39:20;99828.69;;;0.69;63.92
10587;BME280;5341;47.606;7.576;2022-12-18T03:42:03;99830.56;;;0.67;63.57
10587;BME280;5341;47.606;7.576;2022-12-18T03:44:47;99823.63;;;0.66;63.72
10587;BME280;5341;47.606;7.576;2022-12-18T03:47:26;99829.19;;;0.62;63.48
10587;BME280;5341;47.606;7.576;2022-12-18T03:50:15;99831.88;;;0.60;63.55
10587;BME280;5341;47.606;7.576;2022-12-18T03:52:52;99829.34;;;0.58;63.57
10587;BME280;5341;47.606;7.576;2022-12-18T03:55:23;99828.59;;;0.56;63.73
10587;BME280;5341;47.606;7.576;2022-12-18T03:58:03;99829.44;;;0.57;63.66
10587;BME280;5341;47.606;7.576;2022-12-18T04:00:52;99829.44;;;0.57;63.67
10587;BME280;5341;47.606;7.576;2022-12-18T04:03:29;99835.56;;;0.57;63.45
10587;BME280;5341;47.606;7.576;2022-12-18T04:06:02;99832.16;;;0.55;63.74
10587;BME280;5341;47.606;7.576;2022-12-18T04:08:35;99832.25;;;0.54;63.53
10587;BME280;5341;47.606;7.576;2022-12-18T04:11:07;99826.25;;;0.52;63.33
10587;BME280;5341;47.606;7.576;2022-12-18T04:13:37;99842.97;;;0.51;63.46
10587;BME280;5341;47.606;7.576;2022-12-18T04:16:12;99833.41;;;0.50;63.42
10587;BME280;5341;47.606;7.576;2022-12-18T04:18:42;99837.88;;;0.48;63.47
10587;BME280;5341;47.606;7.576;2022-12-18T04:21:14;99833.47;;;0.48;63.44
10587;BME280;5341;47.606;7.576;2022-12-18T04:23:43;99838.72;;;0.48;63.50
10587;BME280;5341;47.606;7.576;2022-12-18T04:26:15;99841.47;;;0.47;63.37
10587;BME280;5341;47.606;7.576;2022-12-18T04:29:02;99845.03;;;0.46;63.35
10587;BME280;5341;47.606;7.576;2022-12-18T04:31:32;99848.50;;;0.46;63.36
10587;BME280;5341;47.606;7.576;2022-12-18T04:34:03;99843.34;;;0.45;63.17
10587;BME280;5341;47.606;7.576;2022-12-18T04:36:48;99844.38;;;0.42;63.41
10587;BME280;5341;47.606;7.576;2022-12-18T04:41:55;99833.84;;;0.42;63.20
10587;BME280;5341;47.606;7.576;2022-12-18T04:44:24;99832.25;;;0.40;62.96
10587;BME280;5341;47.606;7.576;2022-12-18T04:46:54;99839.31;;;0.39;62.96
10587;BME280;5341;47.606;7.576;2022-12-18T04:49:23;99835.81;;;0.39;63.12
10587;BME280;5341;47.606;7.576;2022-12-18T04:51:56;99842.97;;;0.37;62.96
10587;BME280;5341;47.606;7.576;2022-12-18T04:54:24;99842.09;;;0.36;63.22
10587;BME280;5341;47.606;7.576;2022-12-18T04:56:54;99835.13;;;0.35;63.14
10587;BME280;5341;47.606;7.576;2022-12-18T04:59:24;99835.13;;;0.35;63.01
10587;BME280;5341;47.606;7.576;2022-12-18T05:01:55;99829.88;;;0.35;63.00
10587;BME280;5341;47.606;7.576;2022-12-18T05:04:27;99829.88;;;0.35;62.88
10587;BME280;5341;47.606;7.576;2022-12-18T05:07:12;99835.97;;;0.36;63.08
10587;BME280;5341;47.606;7.576;2022-12-18T05:09:45;99829.97;;;0.34;63.08
10587;BME280;5341;47.606;7.576;2022-12-18T05:14:53;99825.66;;;0.33;63.25
10587;BME280;5341;47.606;7.576;2022-12-18T05:17:26;99836.19;;;0.33;62.83
10587;BME280;5341;47.606;7.576;2022-12-18T05:19:54;99845.84;;;0.32;63.17
10587;BME280;5341;47.606;7.576;2022-12-18T05:22:46;99838.06;;;0.31;63.04
10587;BME280;5341;47.606;7.576;2022-12-18T05:25:15;99836.47;;;0.28;63.06
10587;BME280;5341;47.606;7.576;2022-12-18T05:27:47;99842.56;;;0.28;62.94
10587;BME280;5341;47.606;7.576;2022-12-18T05:30:16;99840.03;;;0.27;62.99
10587;BME280;5341;47.606;7.576;2022-12-18T05:32:45;99836.56;;;0.26;63.00
10587;BME280;5341;47.606;7.576;2022-12-18T05:35:14;99839.28;;;0.25;62.94
10587;BME280;5341;47.606;7.576;2022-12-18T05:37:53;99838.44;;;0.24;62.67
10587;BME280;5341;47.606;7.576;2022-12-18T05:40:42;99840.19;;;0.24;62.93
10587;BME280;5341;47.606;7.576;2022-12-18T05:43:14;99842.81;;;0.24;62.79
10587;BME280;5341;47.606;7.576;2022-12-18T05:45:46;99838.50;;;0.23;62.66
10587;BME280;5341;47.606;7.576;2022-12-18T05:48:20;99841.13;;;0.23;62.96
10587;BME280;5341;47.606;7.576;2022-12-18T05:51:15;99835.88;;;0.23;62.82
10587;BME280;5341;47.606;7.576;2022-12-18T05:53:48;99835.97;;;0.21;63.00
10587;BME280;5341;47.606;7.576;2022-12-18T05:56:19;99838.59;;;0.21;62.88
10587;BME280;5341;47.606;7.576;2022-12-18T05:58:55;99843.00;;;0.21;63.02
10587;BME280;5341;47.606;7.576;2022-12-18T06:01:26;99846.56;;;0.20;62.77
10587;BME280;5341;47.606;7.576;2022-12-18T06:04:02;99844.03;;;0.18;62.78
10587;BME280;5341;47.606;7.576;2022-12-18T06:06:34;99847.59;;;0.17;62.80
10587;BME280;5341;47.606;7.576;2022-12-18T06:09:28;99854.66;;;0.17;62.65
10587;BME280;5341;47.606;7.576;2022-12-18T06:12:24;99852.13;;;0.15;62.78
10587;BME280;5341;47.606;7.576;2022-12-18T06:15:07;99853.06;;;0.14;62.84
10587;BME280;5341;47.606;7.576;2022-12-18T06:17:54;99864.50;;;0.13;62.75
10587;BME280;5341;47.606;7.576;2022-12-18T06:20:40;99864.50;;;0.13;62.65
10587;BME280;5341;47.606;7.576;2022-12-18T06:23:28;99861.09;;;0.11;62.76
10587;BME280;5341;47.606;7.576;2022-12-18T06:26:02;99872.47;;;0.12;62.55
10587;BME280;5341;47.606;7.576;2022-12-18T06:28:37;99868.16;;;0.11;62.82
10587;BME280;5341;47.606;7.576;2022-12-18T06:31:21;99876.88;;;0.11;62.64
10587;BME280;5341;47.606;7.576;2022-12-18T06:33:50;99884.00;;;0.09;62.58
10587;BME280;5341;47.606;7.576;2022-12-18T06:36:19;99884.00;;;0.09;62.76
10587;BME280;5341;47.606;7.576;2022-12-18T06:38:52;99884.88;;;0.10;62.72
10587;BME280;5341;47.606;7.576;2022-12-18T06:41:26;99889.28;;;0.09;62.51
10587;BME280;5341;47.606;7.576;2022-12-18T06:43:55;99893.69;;;0.09;62.61
10587;BME280;5341;47.606;7.576;2022-12-18T06:46:28;99898.94;;;0.09;62.57
10587;BME280;5341;47.606;7.576;2022-12-18T06:48:58;99894.63;;;0.08;62.69
10587;BME280;5341;47.606;7.576;2022-12-18T06:51:40;99905.25;;;0.06;62.52
10587;BME280;5341;47.606;7.576;2022-12-18T06:54:09;99901.84;;;0.04;62.30
10587;BME280;5341;47.606;7.576;2022-12-18T06:56:45;99900.16;;;0.03;62.51
10587;BME280;5341;47.606;7.576;2022-12-18T06:59:14;99897.63;;;0.02;62.59
10587;BME280;5341;47.606;7.576;2022-12-18T07:01:43;99911.72;;;0.01;62.36
10587;BME280;5341;47.606;7.576;2022-12-18T07:04:27;99913.41;;;0.02;62.62
10587;BME280;5341;47.606;7.576;2022-12-18T07:07:01;99912.63;;;-0.01;62.48
10587;BME280;5341;47.606;7.576;2022-12-18T07:09:33;99917.03;;;-0.01;62.52
10587;BME280;5341;47.606;7.576;2022-12-18T07:12:04;99924.06;;;-0.02;62.42
10587;BME280;5341;47.606;7.576;2022-12-18T07:14:39;99931.13;;;-0.02;62.38
10587;BME280;5341;47.606;7.576;2022-12-18T07:17:12;99925.94;;;-0.04;62.38
10587;BME280;5341;47.606;7.576;2022-12-18T07:19:44;99926.03;;;-0.05;62.37
10587;BME280;5341;47.606;7.576;2022-12-18T07:22:33;99941.72;;;-0.04;62.07
10587;BME280;5341;47.606;7.576;2022-12-18T07:25:07;99935.72;;;-0.06;62.36
10587;BME280;5341;47.606;7.576;2022-12-18T07:27:39;99946.22;;;-0.06;62.45
10587;BME280;5341;47.606;7.576;2022-12-18T07:30:12;99948.84;;;-0.06;62.37
10587;BME280;5341;47.606;7.576;2022-12-18T07:32:45;99954.13;;;-0.06;62.43
10587;BME280;5341;47.606;7.576;2022-12-18T07:35:15;99961.16;;;-0.06;62.51
10587;BME280;5341;47.606;7.576;2022-12-18T07:37:54;99964.63;;;-0.06;62.35
10587;BME280;5341;47.606;7.576;2022-12-18T07:40:31;99973.38;;;-0.05;62.77
10587;BME280;5341;47.606;7.576;2022-12-18T07:43:01;99970.75;;;-0.05;62.62
10587;BME280;5341;47.606;7.576;2022-12-18T07:45:30;99978.63;;;-0.05;62.45
10587;BME280;5341;47.606;7.576;2022-12-18T07:47:58;99979.47;;;-0.05;62.33
10587;BME280;5341;47.606;7.576;2022-12-18T07:51:02;99988.28;;;-0.06;62.33
10587;BME280;5341;47.606;7.576;2022-12-18T07:53:55;100001.44;;;-0.06;62.45
10587;BME280;5341;47.606;7.576;2022-12-18T07:56:27;99999.84;;;-0.08;62.30
10587;BME280;5341;47.606;7.576;2022-12-18T07:59:17;100009.50;;;-0.09;62.24
10587;BME280;5341;47.606;7.576;2022-12-18T08:01:45;99999.94;;;-0.10;62.37
10587;BME280;5341;47.606;7.576;2022-12-18T08:04:38;100004.34;;;-0.10;62.50
10587;BME280;5341;47.606;7.576;2022-12-18T08:07:21;100001.72;;;-0.10;62.43
10587;BME280;5341;47.606;7.576;2022-12-18T08:09:52;100012.22;;;-0.10;62.31
10587;BME280;5341;47.606;7.576;2022-12-18T08:12:20;100007.81;;;-0.10;62.44
10587;BME280;5341;47.606;7.576;2022-12-18T08:15:13;100014.75;;;-0.09;62.50
10587;BME280;5341;47.606;7.576;2022-12-18T08:17:56;100007.72;;;-0.08;62.39
10587;BME280;5341;47.606;7.576;2022-12-18T08:20:41;100009.41;;;-0.07;62.47
10587;BME280;5341;47.606;7.576;2022-12-18T08:23:18;100003.13;;;-0.05;62.40
10587;BME280;5341;47.606;7.576;2022-12-18T08:25:53;99992.63;;;-0.05;62.44
10587;BME280;5341;47.606;7.576;2022-12-18T08:28:21;99999.47;;;-0.02;62.44
10587;BME280;5341;47.606;7.576;2022-12-18T08:30:53;99986.34;;;-0.02;62.50
10587;BME280;5341;47.606;7.576;2022-12-18T08:33:26;99984.63;;;-0.03;62.53
10587;BME280;5341;47.606;7.576;2022-12-18T08:35:59;99980.31;;;-0.04;62.38
10587;BME280;5341;47.606;7.576;2022-12-18T08:38:30;99978.53;;;-0.04;62.16
10587;BME280;5341;47.606;7.576;2022-12-18T08:40:59;99965.47;;;-0.05;62.38
10587;BME280;5341;47.606;7.576;2022-12-18T08:43:34;99966.31;;;-0.05;62.36
10587;BME280;5341;47.606;7.576;2022-12-18T08:46:22;99954.03;;;-0.04;62.33
10587;BME280;5341;47.606;7.576;2022-12-18T08:48:53;99949.69;;;-0.05;62.47
10587;BME280;5341;47.606;7.576;2022-12-18T08:51:24;99950.53;;;-0.05;62.21
10587;BME280;5341;47.606;7.576;2022-12-18T08:54:05;99943.50;;;-0.04;62.42
10587;BME280;5341;47.606;7.576;2022-12-18T08:56:37;99934.69;;;-0.03;62.45
10587;BME280;5341;47.606;7.576;2022-12-18T08:59:09;99944.25;;;-0.02;62.67
10587;BME280;5341;47.606;7.576;2022-12-18T09:01:43;99938.75;;;0.03;62.52
10587;BME280;5341;47.606;7.576;2022-12-18T09:04:13;99942.16;;;0.05;62.79
10587;BME280;5341;47.606;7.576;2022-12-18T09:06:53;99933.91;;;0.11;62.94
10587;BME280;5341;47.606;7.576;2022-12-18T09:09:33;99932.72;;;0.16;63.10
10587;BME280;5341;47.606;7.576;2022-12-18T09:12:27;99937.50;;;0.24;62.88
10587;BME280;5341;47.606;7.576;2022-12-18T09:14:58;99933.69;;;0.29;63.05
10587;BME280;5341;47.606;7.576;2022-12-18T09:17:28;99935.97;;;0.36;63.05
10587;BME280;5341;47.606;7.576;2022-12-18T09:20:35;99929.31;;;0.44;63.16
10587;BME280;5341;47.606;7.576;2022-12-18T09:23:31;99923.63;;;0.52;62.96
10587;BME280;5341;47.606;7.576;2022-12-18T09:26:11;99923.25;;;0.58;62.98
10587;BME280;5341;47.606;7.576;2022-12-18T09:29:15;99931.56;;;0.66;62.81
10587;BME280;5341;47.606;7.576;2022-12-18T09:32:20;99934.69;;;0.73;62.70
10587;BME280;5341;47.606;7.576;2022-12-18T09:34:55;99938.81;;;0.77;62.62
10587;BME280;5341;47.606;7.576;2022-12-18T09:37:35;99936.75;;;0.82;62.68
10587;BME280;5341;47.606;7.576;2022-12-18T09:42:35;99945.97;;;0.89;62.05
10587;BME280;5341;47.606;7.576;2022-12-18T09:45:12;99947.47;;;0.93;62.18
10587;BME280;5341;47.606;7.576;2022-12-18T09:47:43;99942.03;;;0.96;62.16
10587;BME280;5341;47.606;7.576;2022-12-18T09:50:27;99942.72;;;1.00;62.23
10587;BME280;5341;47.606;7.576;2022-12-18T09:53:04;99951.34;;;1.02;61.98
10587;BME280;5341;47.606;7.576;2022-12-18T09:55:35;99960.75;;;1.06;62.04
10587;BME280;5341;47.606;7.576;2022-12-18T09:58:26;99950.03;;;1.09;61.71
10587;BME280;5341;47.606;7.576;2022-12-18T10:00:56;99949.19;;;1.08;61.78
10587;BME280;5341;47.606;7.576;2022-12-18T10:03:24;99938.47;;;1.11;62.06
10587;BME280;5341;47.606;7.576;2022-12-18T10:06:01;99934.63;;;1.17;61.65
10587;BME280;5341;47.606;7.576;2022-12-18T10:08:37;99929.94;;;1.22;61.87
10587;BME280;5341;47.606;7.576;2022-12-18T10:11:27;99931.22;;;1.29;62.32
10587;BME280;5341;47.606;7.576;2022-12-18T10:14:29;99920.41;;;1.34;63.02
10587;BME280;5341;47.606;7.576;2022-12-18T10:17:18;99926.22;;;1.39;63.03
10587;BME280;5341;47.606;7.576;2022-12-18T10:19:56;99917.94;;;1.45;63.36
10587;BME280;5341;47.606;7.576;2022-12-18T10:22:44;99915.78;;;1.52;63.94
10587;BME280;5341;47.606;7.576;2022-12-18T10:25:20;99912.81;;;1.56;63.67
10587;BME280;5341;47.606;7.576;2022-12-18T10:27:53;99912.66;;;1.59;64.11
10587;BME280;5341;47.606;7.576;2022-12-18T10:30:24;99910.66;;;1.63;64.00
10587;BME280;5341;47.606;7.576;2022-12-18T10:33:04;99913.09;;;1.66;63.94
10587;BME280;5341;47.606;7.576;2022-12-18T10:35:48;99901.34;;;1.71;64.14
10587;BME280;5341;47.606;7.576;2022-12-18T10:38:32;99899.34;;;1.75;64.39
10587;BME280;5341;47.606;7.576;2022-12-18T10:41:07;99897.34;;;1.79;64.55
10587;BME280;5341;47.606;7.576;2022-12-18T10:47:18;99886.31;;;1.86;64.95
10587;BME280;5341;47.606;7.576;2022-12-18T10:50:03;99882.50;;;1.90;64.94
10587;BME280;5341;47.606;7.576;2022-12-18T10:55:16;99891.94;;;1.94;64.87
10587;BME280;5341;47.606;7.576;2022-12-18T10:58:20;99890.03;;;1.96;65.02
10587;BME280;5341;47.606;7.576;2022-12-18T11:01:09;99883.72;;;1.99;65.12
10587;BME280;5341;47.606;7.576;2022-12-18T11:03:59;99877.59;;;1.98;64.66
10587;BME280;5341;47.606;7.576;2022-12-18T11:07:07;99875.91;;;1.97;65.17
10587;BME280;5341;47.606;7.576;2022-12-18T11:13:10;99874.00;;;1.99;64.88
10587;BME280;5341;47.606;7.576;2022-12-18T11:15:45;99874.84;;;2.00;65.17
10587;BME280;5341;47.606;7.576;2022-12-18T11:18:24;99866.19;;;1.98;64.98
10587;BME280;5341;47.606;7.576;2022-12-18T11:20:56;99863.56;;;1.98;65.52
10587;BME280;5341;47.606;7.576;2022-12-18T11:23:31;99869.78;;;1.97;65.46
10587;BME280;5341;47.606;7.576;2022-12-18T11:26:00;99852.16;;;1.97;65.21
10587;BME280;5341;47.606;7.576;2022-12-18T11:28:39;99861.75;;;1.98;65.27
10587;BME280;5341;47.606;7.576;2022-12-18T11:33:43;99866.84;;;2.01;65.27
10587;BME280;5341;47.606;7.576;2022-12-18T11:42:05;99850.78;;;2.04;65.26
10587;BME280;5341;47.606;7.576;2022-12-18T11:44:57;99852.59;;;2.04;65.52
10587;BME280;5341;47.606;7.576;2022-12-18T11:47:48;99853.44;;;2.04;65.62
10587;BME280;5341;47.606;7.576;2022-12-18T11:50:25;99849.84;;;2.05;65.54
10587;BME280;5341;47.606;7.576;2022-12-18T11:56:29;99836.47;;;2.09;65.55
10587;BME280;5341;47.606;7.576;2022-12-18T11:59:16;99849.47;;;2.12;65.64
10587;BME280;5341;47.606;7.576;2022-12-18T12:02:21;99850.28;;;2.12;65.85
10587;BME280;5341;47.606;7.576;2022-12-18T12:05:19;99842.38;;;2.12;65.80
10587;BME280;5341;47.606;7.576;2022-12-18T12:08:06;99829.19;;;2.12;65.71
10587;BME280;5341;47.606;7.576;2022-12-18T12:10:51;99830.88;;;2.13;65.98
10587;BME280;5341;47.606;7.576;2022-12-18T12:13:59;99830.88;;;2.13;65.97
10587;BME280;5341;47.606;7.576;2022-12-18T12:20:49;99829.19;;;2.12;65.86
10587;BME280;5341;47.606;7.576;2022-12-18T12:23:35;99819.47;;;2.13;66.02
10587;BME280;5341;47.606;7.576;2022-12-18T12:26:16;99809.78;;;2.13;65.97
10587;BME280;5341;47.606;7.576;2022-12-18T12:29:19;99818.31;;;2.17;66.18
10587;BME280;5341;47.606;7.576;2022-12-18T12:32:09;99805.97;;;2.17;66.30
10587;BME280;5341;47.606;7.576;2022-12-18T12:34:55;99801.63;;;2.16;66.36
10587;BME280;5341;47.606;7.576;2022-12-18T12:37:38;99804.09;;;2.19;66.20
10587;BME280;5341;47.606;7.576;2022-12-18T12:40:17;99807.59;;;2.20;65.95
10587;BME280;5341;47.606;7.576;2022-12-18T12:42:54;99797.97;;;2.19;66.28
10587;BME280;5341;47.606;7.576;2022-12-18T12:45:45;99803.16;;;2.20;66.00
10587;BME280;5341;47.606;7.576;2022-12-18T12:48:27;99811.06;;;2.20;66.06
10587;BME280;5341;47.606;7.576;2022-12-18T12:51:00;99801.34;;;2.21;65.94
10587;BME280;5341;47.606;7.576;2022-12-18T12:53:57;99810.84;;;2.23;66.05
10587;BME280;5341;47.606;7.576;2022-12-18T12:56:47;99821.28;;;2.25;66.21
10587;BME280;5341;47.606;7.576;2022-12-18T12:59:25;99808.84;;;2.27;66.30
10587;BME280;5341;47.606;7.576;2022-12-18T13:02:04;99811.38;;;2.28;65.79
10587;BME280;5341;47.606;7.576;2022-12-18T13:04:41;99806.84;;;2.30;65.89
10587;BME280;5341;47.606;7.576;2022-12-18T13:07:18;99814.78;;;2.30;65.80
10587;BME280;5341;47.606;7.576;2022-12-18T13:10:30;99806.75;;;2.32;65.88
10587;BME280;5341;47.606;7.576;2022-12-18T13:13:08;99812.97;;;2.31;66.03
10587;BME280;5341;47.606;7.576;2022-12-18T13:15:41;99821.63;;;2.33;66.12
10587;BME280;5341;47.606;7.576;2022-12-18T13:18:32;99820.69;;;2.34;66.01
10587;BME280;5341;47.606;7.576;2022-12-18T13:21:19;99821.63;;;2.33;65.66
10587;BME280;5341;47.606;7.576;2022-12-18T13:23:56;99823.22;;;2.35;66.02
10587;BME280;5341;47.606;7.576;2022-12-18T13:26:49;99824.91;;;2.37;65.93
10587;BME280;5341;47.606;7.576;2022-12-18T13:29:48;99812.53;;;2.37;66.06
10587;BME280;5341;47.606;7.576;2022-12-18T13:32:22;99818.56;;;2.39;65.99
10587;BME280;5341;47.606;7.576;2022-12-18T13:37:55;99810.75;;;2.38;66.53
10587;BME280;5341;47.606;7.576;2022-12-18T13:43:37;99805.25;;;2.41;66.25
10587;BME280;5341;47.606;7.576;2022-12-18T13:46:24;99801.78;;;2.40;65.85
10587;BME280;5341;47.606;7.576;2022-12-18T13:49:02;99801.78;;;2.40;66.38
10587;BME280;5341;47.606;7.576;2022-12-18T13:51:35;99795.53;;;2.41;66.06
10587;BME280;5341;47.606;7.576;2022-12-18T13:54:18;99798.19;;;2.41;66.00
10587;BME280;5341;47.606;7.576;2022-12-18T13:57:00;99807.78;;;2.42;66.13
10587;BME280;5341;47.606;7.576;2022-12-18T13:59:36;99794.69;;;2.41;66.14
10587;BME280;5341;47.606;7.576;2022-12-18T14:02:14;99800.94;;;2.40;65.92
10587;BME280;5341;47.606;7.576;2022-12-18T14:04:55;99793.75;;;2.42;66.21
10587;BME280;5341;47.606;7.576;2022-12-18T14:07:26;99790.19;;;2.43;65.57
10587;BME280;5341;47.606;7.576;2022-12-18T14:10:00;99788.38;;;2.43;66.12
10587;BME280;5341;47.606;7.576;2022-12-18T14:12:32;99787.31;;;2.46;66.43
10587;BME280;5341;47.606;7.576;2022-12-18T14:15:40;99786.47;;;2.45;65.94
10587;BME280;5341;47.606;7.576;2022-12-18T14:20:58;99790.81;;;2.46;66.52
10587;BME280;5341;47.606;7.576;2022-12-18T14:23:32;99789.00;;;2.47;66.60
10587;BME280;5341;47.606;7.576;2022-12-18T14:26:22;99773.91;;;2.49;66.04
10587;BME280;5341;47.606;7.576;2022-12-18T14:28:58;99773.06;;;2.48;65.79
10587;BME280;5341;47.606;7.576;2022-12-18T14:31:37;99776.53;;;2.49;65.98
10587;BME280;5341;47.606;7.576;2022-12-18T14:34:26;99770.41;;;2.48;65.96
10587;BME280;5341;47.606;7.576;2022-12-18T14:36:59;99780.88;;;2.50;66.01
10587;BME280;5341;47.606;7.576;2022-12-18T14:39:38;99781.72;;;2.50;66.28
10587;BME280;5341;47.606;7.576;2022-12-18T14:42:14;99780.03;;;2.49;65.87
10587;BME280;5341;47.606;7.576;2022-12-18T14:44:47;99783.50;;;2.50;65.79
10587;BME280;5341;47.606;7.576;2022-12-18T14:47:23;99782.66;;;2.49;66.18
10587;BME280;5341;47.606;7.576;2022-12-18T14:49:56;99780.03;;;2.49;66.26
10587;BME280;5341;47.606;7.576;2022-12-18T14:52:28;99788.91;;;2.48;65.96
10587;BME280;5341;47.606;7.576;2022-12-18T14:55:01;99789.00;;;2.47;65.91
10587;BME280;5341;47.606;7.576;2022-12-18T14:57:36;99792.50;;;2.47;66.06
10587;BME280;5341;47.606;7.576;2022-12-18T15:00:20;99790.69;;;2.48;65.82
10587;BME280;5341;47.606;7.576;2022-12-18T15:02:56;99794.28;;;2.47;65.79
10587;BME280;5341;47.606;7.576;2022-12-18T15:05:39;99798.63;;;2.48;65.60
10587;BME280;5341;47.606;7.576;2022-12-18T15:11:33;99802.50;;;2.42;66.09